createdAt,value
2023-05-17T00:00:22.850Z,44.01
2023-05-17T00:01:21.880Z,43.98
2023-05-17T00:02:22.914Z,44.00
2023-05-17T00:03:21.967Z,43.98
2023-05-17T00:04:23.080Z,44.00
2023-05-17T00:05:22.046Z,43.98
2023-05-17T00:06:22.163Z,43.99
2023-05-17T00:07:22.245Z,43.96
2023-05-17T00:08:22.172Z,43.97
2023-05-17T00:09:23.226Z,43.99
2023-05-17T00:10:22.346Z,44.00
2023-05-17T00:11:22.315Z,43.99
2023-05-17T00:12:23.366Z,44.00
2023-05-17T00:13:22.414Z,43.98
2023-05-17T00:14:23.456Z,43.95
2023-05-17T00:15:22.488Z,43.92
2023-05-17T00:16:23.520Z,43.93
2023-05-17T00:17:23.582Z,43.95
2023-05-17T00:18:22.685Z,43.88
2023-05-17T00:19:22.748Z,43.96
2023-05-17T00:20:22.678Z,43.95
2023-05-17T00:21:23.713Z,43.99
2023-05-17T00:22:23.762Z,43.95
2023-05-17T00:23:22.916Z,43.93
2023-05-17T00:24:23.848Z,43.94
2023-05-17T00:25:22.887Z,43.96
2023-05-17T00:26:23.940Z,43.96
2023-05-17T00:27:23.963Z,43.95
2023-05-17T00:28:24.002Z,43.95
2023-05-17T00:29:23.081Z,43.95
2023-05-17T00:30:23.080Z,43.92
2023-05-17T00:31:24.120Z,43.93
2023-05-17T00:32:23.193Z,43.95
2023-05-17T00:33:24.233Z,43.89
2023-05-17T00:34:23.277Z,43.93
2023-05-17T00:35:24.590Z,43.91
2023-05-17T00:36:23.350Z,43.90
2023-05-17T00:37:23.399Z,43.91
2023-05-17T00:38:24.429Z,43.91
2023-05-17T00:39:24.654Z,43.94
2023-05-17T00:40:24.512Z,43.93
2023-05-17T00:41:24.563Z,43.93
2023-05-17T00:42:23.622Z,43.90
2023-05-17T00:43:23.659Z,43.93
2023-05-17T00:44:23.703Z,43.91
2023-05-17T00:45:24.740Z,43.90
2023-05-17T00:46:24.808Z,43.94
2023-05-17T00:47:23.853Z,43.93
2023-05-17T00:48:23.971Z,43.91
2023-05-17T00:49:24.925Z,43.91
2023-05-17T00:50:24.968Z,43.91
2023-05-17T00:51:25.007Z,43.94
2023-05-17T00:52:25.048Z,43.90
2023-05-17T00:53:25.084Z,43.91
2023-05-17T00:54:24.141Z,43.92
2023-05-17T00:55:25.485Z,43.89
2023-05-17T00:56:25.248Z,43.88
2023-05-17T00:57:24.294Z,43.92
2023-05-17T00:58:25.320Z,43.87
2023-05-17T00:59:25.375Z,43.84
2023-05-17T01:00:24.416Z,43.89
2023-05-17T01:01:24.450Z,43.85
2023-05-17T01:02:25.530Z,43.88
2023-05-17T01:03:24.615Z,43.89
2023-05-17T01:04:24.688Z,43.89
2023-05-17T01:05:24.644Z,43.90
2023-05-17T01:06:25.685Z,43.89
2023-05-17T01:07:25.731Z,43.91
2023-05-17T01:08:24.762Z,43.90
2023-05-17T01:09:25.816Z,43.87
2023-05-17T01:10:25.842Z,43.87
2023-05-17T01:11:25.107Z,43.87
2023-05-17T01:12:25.955Z,43.86
2023-05-17T01:13:24.985Z,43.83
2023-05-17T01:14:25.031Z,43.85
2023-05-17T01:15:26.351Z,43.81
2023-05-17T01:16:26.116Z,43.87
2023-05-17T01:17:26.211Z,43.85
2023-05-17T01:18:25.256Z,43.87
2023-05-17T01:19:26.397Z,43.86
2023-05-17T01:20:25.326Z,43.81
2023-05-17T01:21:26.335Z,43.87
2023-05-17T01:22:25.386Z,43.81
2023-05-17T01:23:26.417Z,43.87
2023-05-17T01:24:26.483Z,43.84
2023-05-17T01:25:26.691Z,43.84
2023-05-17T01:26:26.650Z,43.82
2023-05-17T01:27:26.606Z,43.83
2023-05-17T01:28:26.628Z,43.80
2023-05-17T01:29:25.665Z,43.83
2023-05-17T01:30:25.732Z,43.81
2023-05-17T01:31:26.776Z,43.85
2023-05-17T01:32:26.891Z,43.86
2023-05-17T01:33:25.931Z,43.84
2023-05-17T01:34:26.906Z,43.82
2023-05-17T01:35:26.105Z,43.85
2023-05-17T01:36:26.966Z,43.82
2023-05-17T01:37:27.012Z,43.84
2023-05-17T01:38:26.087Z,43.78
2023-05-17T01:39:27.133Z,43.79
2023-05-17T01:40:26.165Z,43.79
2023-05-17T01:41:26.221Z,43.78
2023-05-17T01:42:26.354Z,43.82
2023-05-17T01:43:26.324Z,43.78
2023-05-17T01:44:27.349Z,43.79
2023-05-17T01:45:26.760Z,43.81
2023-05-17T01:46:26.431Z,43.79
2023-05-17T01:47:26.499Z,43.81
2023-05-17T01:48:27.561Z,43.80
2023-05-17T01:49:27.574Z,43.75
2023-05-17T01:50:26.610Z,43.83
2023-05-17T01:51:26.660Z,43.81
2023-05-17T01:52:27.714Z,43.81
2023-05-17T01:53:26.748Z,43.80
2023-05-17T01:54:27.821Z,43.83
2023-05-17T01:55:28.043Z,43.80
2023-05-17T01:56:26.886Z,43.80
2023-05-17T01:57:27.954Z,43.78
2023-05-17T01:58:27.109Z,43.84
2023-05-17T01:59:28.081Z,43.82
2023-05-17T02:00:28.063Z,43.81
2023-05-17T02:01:28.112Z,43.78
2023-05-17T02:02:27.173Z,43.80
2023-05-17T02:03:28.225Z,43.81
2023-05-17T02:04:27.245Z,43.78
2023-05-17T02:05:28.481Z,43.77
2023-05-17T02:06:27.308Z,43.82
2023-05-17T02:07:28.354Z,43.78
2023-05-17T02:08:28.399Z,43.73
2023-05-17T02:09:27.467Z,43.76
2023-05-17T02:10:28.482Z,43.76
2023-05-17T02:11:28.572Z,43.80
2023-05-17T02:12:27.571Z,43.78
2023-05-17T02:13:28.632Z,43.78
2023-05-17T02:14:27.905Z,43.78
2023-05-17T02:15:28.910Z,43.78
2023-05-17T02:16:28.809Z,43.78
2023-05-17T02:17:28.992Z,43.75
2023-05-17T02:18:28.010Z,43.74
2023-05-17T02:19:29.020Z,43.76
2023-05-17T02:20:28.998Z,43.75
2023-05-17T02:21:28.020Z,43.77
2023-05-17T02:22:28.070Z,43.75
2023-05-17T02:23:29.162Z,43.74
2023-05-17T02:24:29.200Z,43.76
2023-05-17T02:25:28.571Z,43.78
2023-05-17T02:26:28.299Z,43.77
2023-05-17T02:27:28.349Z,43.78
2023-05-17T02:28:29.390Z,43.77
2023-05-17T02:29:29.565Z,43.76
2023-05-17T02:30:28.499Z,43.79
2023-05-17T02:31:28.552Z,43.78
2023-05-17T02:32:29.746Z,43.78
2023-05-17T02:33:29.923Z,43.78
2023-05-17T02:34:29.768Z,43.75
2023-05-17T02:35:29.137Z,43.80
2023-05-17T02:36:29.820Z,43.77
2023-05-17T02:37:29.870Z,43.77
2023-05-17T02:38:28.948Z,43.78
2023-05-17T02:39:30.013Z,43.77
2023-05-17T02:40:29.061Z,43.72
2023-05-17T02:41:30.119Z,43.72
2023-05-17T02:42:29.163Z,43.73
2023-05-17T02:43:30.217Z,43.77
2023-05-17T02:44:30.288Z,43.74
2023-05-17T02:45:30.707Z,43.77
2023-05-17T02:46:29.406Z,43.76
2023-05-17T02:47:30.552Z,43.77
2023-05-17T02:48:30.522Z,43.78
2023-05-17T02:49:30.585Z,43.77
2023-05-17T02:50:30.633Z,43.77
2023-05-17T02:51:30.686Z,43.77
2023-05-17T02:52:30.732Z,43.77
2023-05-17T02:53:30.818Z,43.77
2023-05-17T02:54:30.866Z,43.77
2023-05-17T02:55:30.981Z,43.73
2023-05-17T02:56:29.965Z,43.72
2023-05-17T02:57:31.022Z,43.73
2023-05-17T02:58:30.075Z,43.79
2023-05-17T02:59:31.154Z,43.73
2023-05-17T03:00:30.195Z,43.70
2023-05-17T03:01:31.357Z,43.75
2023-05-17T03:02:31.384Z,43.71
2023-05-17T03:03:31.517Z,43.68
2023-05-17T03:04:31.542Z,43.70
2023-05-17T03:05:31.516Z,43.69
2023-05-17T03:06:31.550Z,43.73
2023-05-17T03:07:31.607Z,43.73
2023-05-17T03:08:30.658Z,43.75
2023-05-17T03:09:30.732Z,43.75
2023-05-17T03:10:31.783Z,43.67
2023-05-17T03:11:31.846Z,43.70
2023-05-17T03:12:31.904Z,43.69
2023-05-17T03:13:31.996Z,43.74
2023-05-17T03:14:32.013Z,43.75
2023-05-17T03:15:31.169Z,43.73
2023-05-17T03:16:32.143Z,43.69
2023-05-17T03:17:31.399Z,43.71
2023-05-17T03:18:31.408Z,43.68
2023-05-17T03:19:32.379Z,43.69
2023-05-17T03:20:31.380Z,43.66
2023-05-17T03:21:32.438Z,43.69
2023-05-17T03:22:31.494Z,43.66
2023-05-17T03:23:31.582Z,43.71
2023-05-17T03:24:32.641Z,43.69
2023-05-17T03:25:32.700Z,43.68
2023-05-17T03:26:32.769Z,43.68
2023-05-17T03:27:31.876Z,43.67
2023-05-17T03:28:32.901Z,43.64
2023-05-17T03:29:32.974Z,43.65
2023-05-17T03:30:32.021Z,43.65
2023-05-17T03:31:32.084Z,43.68
2023-05-17T03:32:33.162Z,43.65
2023-05-17T03:33:33.428Z,43.65
2023-05-17T03:34:33.273Z,43.65
2023-05-17T03:35:33.323Z,43.65
2023-05-17T03:36:33.367Z,43.68
2023-05-17T03:37:33.440Z,43.66
2023-05-17T03:38:33.500Z,43.64
2023-05-17T03:39:33.580Z,43.60
2023-05-17T03:40:33.619Z,43.63
2023-05-17T03:41:32.687Z,43.65
2023-05-17T03:42:32.748Z,43.63
2023-05-17T03:43:33.816Z,43.63
2023-05-17T03:44:33.886Z,43.65
2023-05-17T03:45:33.940Z,43.65
2023-05-17T03:46:33.007Z,43.61
2023-05-17T03:47:34.079Z,43.61
2023-05-17T03:48:35.287Z,43.61
2023-05-17T03:49:33.340Z,43.63
2023-05-17T03:50:34.101Z,43.62
2023-05-17T03:51:34.098Z,43.62
2023-05-17T03:52:33.093Z,43.60
2023-05-17T03:53:33.087Z,43.62
2023-05-17T03:54:34.097Z,43.64
2023-05-17T03:55:33.075Z,43.60
2023-05-17T03:56:33.070Z,43.56
2023-05-17T03:57:34.055Z,43.58
2023-05-17T03:58:33.052Z,43.59
2023-05-17T03:59:34.041Z,43.54
2023-05-17T04:00:33.028Z,43.60
2023-05-17T04:01:34.021Z,43.57
2023-05-17T04:02:33.078Z,43.54
2023-05-17T04:03:33.109Z,43.60
2023-05-17T04:04:34.026Z,43.59
2023-05-17T04:05:33.127Z,43.59
2023-05-17T04:06:32.995Z,43.52
2023-05-17T04:07:32.972Z,43.57
2023-05-17T04:08:33.986Z,43.52
2023-05-17T04:09:33.973Z,43.59
2023-05-17T04:10:33.965Z,43.58
2023-05-17T04:11:33.953Z,43.54
2023-05-17T04:12:32.960Z,43.53
2023-05-17T04:13:32.934Z,43.55
2023-05-17T04:14:33.992Z,43.53
2023-05-17T04:15:34.091Z,43.52
2023-05-17T04:16:33.126Z,43.45
2023-05-17T04:17:33.225Z,43.52
2023-05-17T04:18:33.291Z,43.52
2023-05-17T04:19:33.364Z,43.46
2023-05-17T04:20:33.373Z,43.49
2023-05-17T04:21:34.592Z,43.46
2023-05-17T04:22:33.474Z,43.47
2023-05-17T04:23:34.550Z,43.50
2023-05-17T04:24:33.612Z,43.48
2023-05-17T04:25:34.660Z,43.48
2023-05-17T04:26:33.722Z,43.47
2023-05-17T04:27:34.808Z,43.44
2023-05-17T04:28:34.880Z,43.47
2023-05-17T04:29:34.943Z,43.44
2023-05-17T04:30:34.963Z,43.46
2023-05-17T04:31:34.035Z,43.46
2023-05-17T04:32:35.084Z,43.50
2023-05-17T04:33:34.184Z,43.48
2023-05-17T04:34:35.206Z,43.45
2023-05-17T04:35:34.273Z,43.43
2023-05-17T04:36:35.353Z,43.48
2023-05-17T04:37:35.497Z,43.42
2023-05-17T04:38:35.449Z,43.44
2023-05-17T04:39:35.545Z,43.45
2023-05-17T04:40:34.563Z,43.43
2023-05-17T04:41:35.622Z,43.42
2023-05-17T04:42:34.671Z,43.38
2023-05-17T04:43:35.733Z,43.42
2023-05-17T04:44:34.776Z,43.38
2023-05-17T04:45:34.829Z,43.41
2023-05-17T04:46:35.847Z,43.39
2023-05-17T04:47:35.952Z,43.39
2023-05-17T04:48:34.984Z,43.38
2023-05-17T04:49:35.965Z,43.35
2023-05-17T04:50:36.034Z,43.39
2023-05-17T04:51:35.061Z,43.36
2023-05-17T04:52:36.113Z,43.38
2023-05-17T04:53:36.372Z,43.33
2023-05-17T04:54:36.169Z,43.33
2023-05-17T04:55:36.219Z,43.30
2023-05-17T04:56:36.265Z,43.40
2023-05-17T04:57:36.287Z,43.32
2023-05-17T04:58:36.326Z,43.35
2023-05-17T04:59:36.371Z,43.36
2023-05-17T05:00:36.410Z,43.33
2023-05-17T05:01:35.511Z,43.33
2023-05-17T05:02:36.551Z,43.35
2023-05-17T05:03:35.626Z,43.32
2023-05-17T05:04:36.572Z,43.38
2023-05-17T05:05:36.622Z,43.42
2023-05-17T05:06:35.707Z,43.35
2023-05-17T05:07:36.750Z,43.48
2023-05-17T05:08:36.784Z,43.67
2023-05-17T05:09:36.969Z,43.63
2023-05-17T05:10:36.885Z,43.48
2023-05-17T05:11:35.886Z,43.51
2023-05-17T05:12:35.932Z,43.49
2023-05-17T05:13:35.924Z,43.42
2023-05-17T05:14:36.926Z,43.25
2023-05-17T05:15:35.958Z,43.18
2023-05-17T05:16:35.967Z,43.12
2023-05-17T05:17:36.105Z,43.14
2023-05-17T05:18:36.093Z,42.57
2023-05-17T05:19:36.039Z,41.74
2023-05-17T05:20:36.059Z,40.75
2023-05-17T05:21:37.051Z,40.49
2023-05-17T05:22:36.103Z,39.97
2023-05-17T05:23:37.130Z,41.16
2023-05-17T05:24:36.119Z,41.10
2023-05-17T05:25:37.309Z,40.60
2023-05-17T05:26:37.140Z,40.47
2023-05-17T05:27:36.179Z,40.35
2023-05-17T05:28:36.182Z,40.43
2023-05-17T05:29:36.303Z,41.11
2023-05-17T05:30:37.341Z,42.05
2023-05-17T05:31:37.287Z,42.86
2023-05-17T05:32:37.371Z,42.90
2023-05-17T05:33:37.487Z,42.91
2023-05-17T05:34:36.330Z,43.81
2023-05-17T05:35:37.349Z,42.95
2023-05-17T05:36:37.360Z,42.82
2023-05-17T05:37:37.435Z,42.89
2023-05-17T05:38:37.459Z,42.67
2023-05-17T05:39:36.534Z,43.08
2023-05-17T05:40:36.913Z,42.55
2023-05-17T05:41:37.729Z,42.67
2023-05-17T05:42:37.664Z,42.68
2023-05-17T05:43:37.706Z,42.86
2023-05-17T05:44:36.761Z,42.79
2023-05-17T05:45:36.861Z,42.23
2023-05-17T05:46:37.844Z,42.51
2023-05-17T05:47:36.912Z,42.70
2023-05-17T05:48:36.981Z,42.83
2023-05-17T05:49:37.954Z,42.67
2023-05-17T05:50:37.028Z,42.79
2023-05-17T05:51:38.044Z,43.00
2023-05-17T05:52:38.087Z,43.06
2023-05-17T05:53:38.104Z,43.31
2023-05-17T05:54:38.109Z,43.06
2023-05-17T05:55:37.149Z,43.25
2023-05-17T05:56:38.174Z,43.32
2023-05-17T05:57:37.419Z,43.93
2023-05-17T05:58:37.232Z,43.54
2023-05-17T05:59:37.213Z,43.62
2023-05-17T06:00:37.432Z,43.43
2023-05-17T06:01:37.192Z,43.40
2023-05-17T06:02:37.196Z,43.30
2023-05-17T06:03:38.197Z,43.12
2023-05-17T06:04:45.129Z,43.30
2023-05-17T06:05:38.238Z,43.59
2023-05-17T06:07:37.166Z,43.48
2023-05-17T06:08:38.166Z,43.44
2023-05-17T06:09:38.174Z,43.62
2023-05-17T06:10:37.150Z,43.83
2023-05-17T06:11:38.130Z,43.95
2023-05-17T06:12:37.128Z,43.79
2023-05-17T06:13:38.242Z,44.21
2023-05-17T06:14:37.107Z,43.96
2023-05-17T06:15:38.120Z,44.59
2023-05-17T06:16:38.107Z,44.44
2023-05-17T06:17:38.116Z,44.18
2023-05-17T06:18:38.247Z,44.74
2023-05-17T06:19:38.199Z,44.53
2023-05-17T06:20:37.068Z,44.39
2023-05-17T06:21:37.066Z,44.64
2023-05-17T06:22:37.086Z,44.86
2023-05-17T06:23:37.042Z,44.86
2023-05-17T06:24:37.040Z,44.72
2023-05-17T06:25:38.037Z,44.59
2023-05-17T06:26:37.033Z,44.49
2023-05-17T06:27:38.016Z,44.54
2023-05-17T06:28:39.052Z,44.42
2023-05-17T06:29:38.049Z,44.52
2023-05-17T06:30:37.003Z,44.64
2023-05-17T06:31:36.981Z,44.78
2023-05-17T06:32:38.060Z,44.87
2023-05-17T06:33:38.093Z,44.66
2023-05-17T06:34:38.102Z,44.67
2023-05-17T06:35:47.967Z,45.20
2023-05-17T06:36:38.763Z,45.11
2023-05-17T06:37:38.139Z,45.09
2023-05-17T06:38:38.106Z,45.76
2023-05-17T06:39:38.128Z,45.41
2023-05-17T06:40:38.121Z,45.32
2023-05-17T06:41:38.112Z,45.36
2023-05-17T06:42:38.097Z,45.19
2023-05-17T06:43:38.135Z,45.29
2023-05-17T06:44:37.080Z,45.47
2023-05-17T06:45:37.179Z,45.71
2023-05-17T06:46:38.033Z,45.61
2023-05-17T06:47:38.164Z,45.86
2023-05-17T06:48:38.236Z,45.50
2023-05-17T06:49:38.022Z,45.94
2023-05-17T06:50:38.024Z,45.68
2023-05-17T06:51:37.060Z,45.97
2023-05-17T06:52:38.049Z,45.66
2023-05-17T06:53:37.065Z,45.44
2023-05-17T06:54:38.109Z,45.35
2023-05-17T06:55:37.440Z,45.43
2023-05-17T06:56:38.220Z,45.18
2023-05-17T06:57:37.268Z,45.23
2023-05-17T06:58:38.252Z,45.12
2023-05-17T06:59:37.331Z,45.35
2023-05-17T07:00:37.267Z,45.36
2023-05-17T07:01:38.498Z,45.39
2023-05-17T07:02:38.419Z,45.43
2023-05-17T07:03:37.468Z,45.58
2023-05-17T07:04:38.346Z,45.60
2023-05-17T07:05:37.424Z,45.57
2023-05-17T07:06:38.352Z,45.50
2023-05-17T07:07:38.379Z,45.45
2023-05-17T07:08:38.390Z,45.44
2023-05-17T07:09:38.413Z,45.42
2023-05-17T07:10:38.393Z,45.36
2023-05-17T07:11:38.413Z,45.33
2023-05-17T07:12:38.426Z,45.27
2023-05-17T07:13:38.453Z,45.18
2023-05-17T07:14:37.471Z,45.16
2023-05-17T07:15:38.493Z,45.09
2023-05-17T07:16:38.562Z,45.00
2023-05-17T07:17:37.622Z,44.91
2023-05-17T07:18:37.687Z,44.95
2023-05-17T07:19:38.747Z,44.91
2023-05-17T07:20:37.633Z,44.87
2023-05-17T07:21:38.631Z,44.82
2023-05-17T07:22:38.651Z,44.81
2023-05-17T07:23:37.672Z,44.75
2023-05-17T07:24:37.684Z,44.74
2023-05-17T07:25:38.903Z,44.65
2023-05-17T07:26:38.751Z,44.62
2023-05-17T07:27:38.784Z,44.58
2023-05-17T07:28:37.801Z,44.52
2023-05-17T07:29:37.886Z,44.48
2023-05-17T07:30:37.861Z,44.44
2023-05-17T07:31:38.867Z,44.40
2023-05-17T07:32:37.921Z,44.35
2023-05-17T07:33:39.014Z,44.30
2023-05-17T07:34:39.017Z,44.25
2023-05-17T07:35:39.011Z,44.17
2023-05-17T07:36:38.109Z,44.09
2023-05-17T07:37:38.100Z,44.13
2023-05-17T07:38:38.124Z,44.08
2023-05-17T07:39:38.171Z,44.02
2023-05-17T07:40:38.258Z,43.99
2023-05-17T07:41:38.256Z,43.98
2023-05-17T07:42:38.307Z,43.96
2023-05-17T07:43:39.328Z,43.84
2023-05-17T07:44:39.368Z,43.88
2023-05-17T07:45:38.404Z,43.84
2023-05-17T07:46:39.501Z,43.83
2023-05-17T07:47:39.513Z,43.84
2023-05-17T07:48:38.532Z,43.75
2023-05-17T07:49:39.623Z,43.72
2023-05-17T07:50:39.513Z,43.51
2023-05-17T07:51:39.976Z,43.42
2023-05-17T07:52:39.580Z,43.46
2023-05-17T07:53:39.644Z,43.20
2023-05-17T07:54:39.695Z,43.34
2023-05-17T07:55:39.750Z,43.33
2023-05-17T07:56:39.766Z,43.38
2023-05-17T07:57:38.814Z,43.37
2023-05-17T07:58:39.867Z,43.43
2023-05-17T07:59:38.950Z,43.43
2023-05-17T08:00:39.994Z,43.43
2023-05-17T08:01:39.048Z,43.47
2023-05-17T08:02:40.153Z,43.48
2023-05-17T08:03:40.179Z,43.49
2023-05-17T08:04:39.248Z,43.53
2023-05-17T08:05:39.302Z,43.53
2023-05-17T08:06:40.345Z,43.57
2023-05-17T08:07:39.373Z,43.56
2023-05-17T08:08:40.446Z,43.61
2023-05-17T08:09:39.469Z,43.58
2023-05-17T08:10:39.533Z,43.58
2023-05-17T08:11:40.564Z,43.57
2023-05-17T08:12:40.594Z,43.52
2023-05-17T08:13:39.714Z,43.52
2023-05-17T08:14:40.699Z,43.65
2023-05-17T08:15:40.738Z,43.75
2023-05-17T08:16:40.832Z,43.77
2023-05-17T08:17:39.929Z,43.81
2023-05-17T08:18:40.997Z,43.76
2023-05-17T08:19:40.953Z,43.83
2023-05-17T08:20:40.995Z,43.80
2023-05-17T08:21:41.478Z,43.82
2023-05-17T08:22:40.074Z,43.95
2023-05-17T08:23:40.111Z,43.99
2023-05-17T08:24:41.187Z,44.04
2023-05-17T08:25:41.199Z,44.06
2023-05-17T08:26:41.280Z,44.05
2023-05-17T08:27:41.275Z,44.10
2023-05-17T08:28:41.307Z,44.17
2023-05-17T08:29:41.327Z,44.21
2023-05-17T08:30:41.381Z,44.23
2023-05-17T08:31:40.403Z,44.28
2023-05-17T08:32:41.511Z,44.34
2023-05-17T08:33:41.552Z,44.33
2023-05-17T08:34:40.529Z,44.41
2023-05-17T08:35:40.552Z,44.37
2023-05-17T08:36:40.979Z,44.39
2023-05-17T08:37:40.674Z,44.37
2023-05-17T08:38:41.645Z,44.55
2023-05-17T08:39:41.721Z,44.61
2023-05-17T08:40:41.717Z,44.57
2023-05-17T08:41:41.993Z,44.59
2023-05-17T08:42:41.740Z,44.66
2023-05-17T08:43:41.780Z,45.12
2023-05-17T08:44:41.810Z,45.08
2023-05-17T08:45:41.852Z,43.50
2023-05-17T08:46:41.975Z,39.16
2023-05-17T08:47:40.972Z,38.11
2023-05-17T08:48:40.969Z,38.07
2023-05-17T08:49:43.050Z,37.40
2023-05-17T08:50:42.014Z,37.09
2023-05-17T08:51:42.505Z,37.13
2023-05-17T08:52:41.140Z,36.97
2023-05-17T08:53:41.135Z,36.60
2023-05-17T08:54:42.172Z,36.82
2023-05-17T08:55:42.009Z,36.36
2023-05-17T08:56:41.477Z,36.60
2023-05-17T08:57:41.185Z,36.74
2023-05-17T08:58:55.469Z,36.61
2023-05-17T08:59:42.207Z,36.50
2023-05-17T09:00:42.190Z,36.73
2023-05-17T09:01:42.238Z,36.50
2023-05-17T09:02:41.237Z,36.71
2023-05-17T09:03:42.257Z,36.62
2023-05-17T09:04:42.241Z,36.57
2023-05-17T09:05:42.244Z,36.41
2023-05-17T09:06:42.174Z,36.30
2023-05-17T09:07:41.157Z,36.41
2023-05-17T09:08:42.116Z,36.33
2023-05-17T09:09:41.142Z,36.41
2023-05-17T09:10:42.106Z,36.26
2023-05-17T09:11:42.112Z,36.33
2023-05-17T09:12:42.094Z,36.45
2023-05-17T09:13:41.102Z,36.37
2023-05-17T09:14:41.101Z,36.57
2023-05-17T09:15:42.058Z,36.40
2023-05-17T09:16:42.064Z,36.20
2023-05-17T09:17:42.174Z,36.29
2023-05-17T09:18:42.226Z,36.50
2023-05-17T09:19:41.102Z,36.72
2023-05-17T09:20:41.050Z,36.81
2023-05-17T09:21:42.066Z,36.87
2023-05-17T09:22:42.018Z,36.85
2023-05-17T09:23:41.458Z,36.85
2023-05-17T09:24:42.007Z,36.91
2023-05-17T09:25:42.024Z,36.66
2023-05-17T09:26:42.522Z,36.22
2023-05-17T09:27:42.004Z,36.36
2023-05-17T09:28:42.143Z,36.44
2023-05-17T09:29:41.992Z,36.58
2023-05-17T09:30:40.984Z,36.70
2023-05-17T09:31:40.965Z,36.69
2023-05-17T09:32:41.977Z,36.81
2023-05-17T09:33:41.970Z,36.78
2023-05-17T09:34:41.950Z,36.86
2023-05-17T09:35:41.934Z,36.90
2023-05-17T09:36:41.927Z,36.99
2023-05-17T09:37:41.900Z,37.01
2023-05-17T09:38:40.904Z,37.06
2023-05-17T09:40:40.912Z,37.13
2023-05-17T09:41:42.150Z,37.25
2023-05-17T09:42:41.926Z,37.25
2023-05-17T09:43:40.891Z,37.18
2023-05-17T09:44:41.498Z,37.26
2023-05-17T09:45:41.915Z,37.36
2023-05-17T09:46:41.968Z,37.59
2023-05-17T09:47:41.099Z,37.62
2023-05-17T09:48:41.132Z,37.73
2023-05-17T09:49:42.074Z,38.12
2023-05-17T09:50:42.081Z,38.12
2023-05-17T09:51:41.511Z,38.33
2023-05-17T09:52:41.187Z,38.76
2023-05-17T09:53:42.189Z,38.88
2023-05-17T09:54:41.271Z,39.10
2023-05-17T09:55:42.237Z,42.46
2023-05-17T09:56:41.391Z,41.93
2023-05-17T09:57:41.340Z,41.73
2023-05-17T09:58:41.293Z,41.22
2023-05-17T09:59:42.314Z,40.84
2023-05-17T10:00:41.304Z,40.53
2023-05-17T10:01:42.308Z,40.78
2023-05-17T10:02:41.441Z,41.03
2023-05-17T10:03:41.413Z,40.21
2023-05-17T10:04:41.504Z,40.14
2023-05-17T10:05:42.533Z,40.27
2023-05-17T10:07:41.474Z,40.10
2023-05-17T10:08:41.475Z,39.82
2023-05-17T10:09:42.605Z,39.63
2023-05-17T10:10:41.508Z,39.87
2023-05-17T10:11:42.514Z,39.39
2023-05-17T10:12:42.532Z,38.92
2023-05-17T10:13:42.574Z,39.09
2023-05-17T10:14:42.575Z,39.42
2023-05-17T10:15:42.590Z,39.16
2023-05-17T10:16:42.597Z,39.45
2023-05-17T10:17:45.352Z,39.11
2023-05-17T10:18:42.693Z,39.19
2023-05-17T10:19:42.670Z,39.06
2023-05-17T10:20:42.570Z,39.12
2023-05-17T10:21:42.579Z,38.97
2023-05-17T10:22:42.605Z,38.67
2023-05-17T10:23:42.614Z,38.70
2023-05-17T10:24:42.584Z,38.82
2023-05-17T10:25:42.562Z,38.87
2023-05-17T10:26:42.544Z,38.89
2023-05-17T10:27:42.549Z,38.62
2023-05-17T10:28:42.514Z,38.50
2023-05-17T10:29:41.539Z,38.57
2023-05-17T10:30:41.535Z,38.40
2023-05-17T10:31:42.536Z,38.36
2023-05-17T10:32:42.662Z,38.53
2023-05-17T10:33:42.594Z,38.50
2023-05-17T10:34:42.471Z,38.37
2023-05-17T10:35:42.485Z,38.48
2023-05-17T10:36:42.613Z,38.66
2023-05-17T10:37:42.464Z,38.71
2023-05-17T10:38:43.228Z,38.77
2023-05-17T10:39:42.427Z,38.65
2023-05-17T10:40:42.431Z,38.32
2023-05-17T10:41:42.567Z,38.35
2023-05-17T10:42:41.421Z,38.47
2023-05-17T10:43:42.410Z,38.37
2023-05-17T10:44:42.434Z,38.44
2023-05-17T10:45:42.522Z,38.77
2023-05-17T10:46:42.374Z,39.06
2023-05-17T10:47:41.435Z,39.48
2023-05-17T10:48:41.374Z,39.23
2023-05-17T10:49:42.354Z,39.20
2023-05-17T10:50:54.059Z,39.40
2023-05-17T10:51:42.365Z,39.50
2023-05-17T10:52:42.339Z,39.49
2023-05-17T10:53:41.338Z,39.57
2023-05-17T10:54:42.329Z,39.59
2023-05-17T10:55:41.305Z,39.59
2023-05-17T10:56:41.326Z,39.68
2023-05-17T10:57:49.890Z,39.70
2023-05-17T10:58:42.317Z,39.71
2023-05-17T10:59:42.276Z,39.75
2023-05-17T11:00:42.300Z,39.74
2023-05-17T11:01:42.587Z,39.81
2023-05-17T11:02:41.284Z,39.84
2023-05-17T11:03:41.236Z,39.94
2023-05-17T11:04:42.298Z,40.02
2023-05-17T11:05:42.285Z,40.08
2023-05-17T11:06:42.316Z,40.09
2023-05-17T11:07:41.276Z,40.11
2023-05-17T11:08:42.212Z,40.10
2023-05-17T11:09:42.201Z,40.10
2023-05-17T11:10:42.223Z,40.00
2023-05-17T11:11:42.197Z,40.10
2023-05-17T11:12:42.230Z,40.20
2023-05-17T11:13:42.185Z,40.22
2023-05-17T11:14:42.172Z,40.25
2023-05-17T11:15:42.163Z,40.26
2023-05-17T11:16:42.173Z,40.37
2023-05-17T11:17:42.253Z,40.39
2023-05-17T11:18:42.315Z,40.31
2023-05-17T11:19:42.282Z,40.30
2023-05-17T11:20:41.307Z,40.43
2023-05-17T11:21:42.110Z,40.43
2023-05-17T11:22:41.121Z,40.36
2023-05-17T11:23:42.102Z,40.37
2023-05-17T11:24:41.097Z,40.38
2023-05-17T11:25:41.089Z,40.38
2023-05-17T11:26:42.103Z,40.41
2023-05-17T11:27:41.080Z,40.36
2023-05-17T11:28:42.067Z,40.42
2023-05-17T11:29:42.085Z,40.49
2023-05-17T11:30:42.061Z,40.53
2023-05-17T11:31:41.044Z,40.56
2023-05-17T11:32:42.102Z,40.59
2023-05-17T11:33:42.130Z,40.61
2023-05-17T11:34:42.235Z,40.68
2023-05-17T11:35:42.031Z,40.61
2023-05-17T11:36:41.018Z,40.65
2023-05-17T11:37:41.994Z,40.61
2023-05-17T11:38:41.997Z,40.66
2023-05-17T11:39:41.982Z,40.58
2023-05-17T11:40:42.030Z,40.58
2023-05-17T11:41:41.982Z,40.58
2023-05-17T11:42:41.967Z,40.65
2023-05-17T11:43:40.962Z,40.75
2023-05-17T11:44:40.990Z,40.82
2023-05-17T11:45:41.927Z,40.90
2023-05-17T11:46:41.937Z,40.89
2023-05-17T11:47:42.127Z,40.99
2023-05-17T11:48:41.967Z,40.99
2023-05-17T11:49:40.953Z,41.04
2023-05-17T11:50:40.909Z,41.07
2023-05-17T11:51:41.903Z,41.11
2023-05-17T11:52:41.921Z,41.19
2023-05-17T11:53:41.876Z,41.17
2023-05-17T11:54:41.895Z,41.19
2023-05-17T11:55:40.877Z,41.25
2023-05-17T11:56:43.663Z,41.30
2023-05-17T11:57:41.836Z,41.30
2023-05-17T11:58:41.835Z,41.31
2023-05-17T11:59:41.831Z,41.32
2023-05-17T12:00:40.818Z,41.36
2023-05-17T12:01:40.806Z,41.39
2023-05-17T12:02:41.872Z,41.43
2023-05-17T12:03:40.809Z,41.42
2023-05-17T12:04:40.926Z,41.47
2023-05-17T12:05:41.871Z,41.48
2023-05-17T12:06:40.856Z,41.47
2023-05-17T12:07:40.772Z,41.47
2023-05-17T12:08:41.777Z,41.48
2023-05-17T12:09:41.787Z,41.50
2023-05-17T12:10:41.753Z,41.54
2023-05-17T12:11:41.741Z,41.52
2023-05-17T12:12:40.759Z,41.52
2023-05-17T12:13:41.715Z,41.53
2023-05-17T12:14:41.711Z,41.54
2023-05-17T12:15:41.734Z,41.59
2023-05-17T12:16:41.740Z,41.57
2023-05-17T12:17:41.763Z,41.56
2023-05-17T12:18:40.868Z,41.54
2023-05-17T12:19:41.847Z,41.53
2023-05-17T12:20:41.666Z,41.51
2023-05-17T12:21:41.696Z,41.60
2023-05-17T12:22:41.689Z,41.73
2023-05-17T12:23:41.675Z,41.78
2023-05-17T12:24:41.708Z,41.87
2023-05-17T12:25:41.635Z,41.93
2023-05-17T12:26:41.723Z,42.12
2023-05-17T12:27:40.617Z,42.23
2023-05-17T12:28:40.713Z,42.20
2023-05-17T12:29:41.607Z,42.17
2023-05-17T12:30:40.597Z,42.18
2023-05-17T12:31:41.604Z,42.22
2023-05-17T12:32:41.715Z,42.17
2023-05-17T12:33:41.708Z,42.23
2023-05-17T12:34:41.561Z,42.39
2023-05-17T12:35:40.565Z,42.41
2023-05-17T12:36:41.542Z,42.38
2023-05-17T12:37:41.597Z,42.38
2023-05-17T12:38:41.609Z,42.47
2023-05-17T12:39:40.541Z,42.50
2023-05-17T12:40:43.356Z,42.57
2023-05-17T12:41:40.512Z,42.53
2023-05-17T12:42:41.509Z,42.57
2023-05-17T12:43:41.516Z,42.57
2023-05-17T12:44:40.504Z,42.63
2023-05-17T12:45:40.483Z,42.55
2023-05-17T12:46:41.495Z,42.54
2023-05-17T12:47:40.533Z,42.55
2023-05-17T12:48:40.509Z,42.61
2023-05-17T12:49:41.453Z,42.59
2023-05-17T12:50:41.456Z,42.58
2023-05-17T12:51:41.443Z,42.58
2023-05-17T12:52:40.431Z,42.61
2023-05-17T12:53:40.453Z,42.60
2023-05-17T12:54:41.411Z,42.62
2023-05-17T12:55:40.416Z,42.65